Time;durP1;ratioP1;P1;durP2;ratioP2;P2;SDS_P1;SDS_P2;PMS_P1;PMS_P2;Temp;Humidity;BMP_temperature;BMP_pressure;BME280_temperature;BME280_humidity;BME280_pressure;Samples;Min_cycle;Max_cycle;Signal;HPM_P1;HPM_P2
2021/12/25 00:01:20;;;;;;;3.70;2.35;;;-7.20;99.90;;;;;;4993179;28;20050;-76
2021/12/25 00:03:49;;;;;;;8.30;2.90;;;-7.20;99.90;;;;;;4996205;28;20058;-76
2021/12/25 00:06:16;;;;;;;8.75;2.15;;;-7.30;99.90;;;;;;4993909;28;20131;-76
2021/12/25 00:08:43;;;;;;;10.50;3.22;;;-7.30;99.90;;;;;;4988656;28;20137;-76
2021/12/25 00:11:10;;;;;;;10.40;2.15;;;-7.30;99.90;;;;;;4993540;28;20063;-76
2021/12/25 00:13:38;;;;;;;7.65;2.28;;;-7.30;99.90;;;;;;4996324;28;20050;-76
2021/12/25 00:16:06;;;;;;;7.13;2.53;;;-7.30;99.90;;;;;;4984655;28;20052;-76
2021/12/25 00:18:35;;;;;;;5.88;2.50;;;-7.30;99.90;;;;;;4995883;28;20073;-76
2021/12/25 00:21:02;;;;;;;5.57;2.00;;;-7.30;99.90;;;;;;4973952;28;20813;-77
2021/12/25 00:23:28;;;;;;;7.82;2.03;;;-7.30;99.90;;;;;;4979458;28;20099;-77
2021/12/25 00:26:01;;;;;;;7.97;2.90;;;-7.40;99.90;;;;;;4993658;28;20117;-76
2021/12/25 00:36:17;;;;;;;11.77;2.92;;;-7.50;99.90;;;;;;4993883;28;20153;-76
2021/12/25 00:38:45;;;;;;;7.80;2.55;;;-7.50;99.90;;;;;;4992146;28;20060;-76
2021/12/25 00:41:15;;;;;;;13.07;4.50;;;-7.50;99.90;;;;;;4992492;28;20061;-77
2021/12/25 00:43:42;;;;;;;8.27;3.22;;;-7.60;99.90;;;;;;4974550;28;20089;-77
2021/12/25 00:46:09;;;;;;;9.05;2.70;;;-7.50;99.90;;;;;;4974634;28;20578;-77
2021/12/25 00:48:37;;;;;;;4.63;2.25;;;-7.50;99.90;;;;;;4978570;28;20058;-77
2021/12/25 00:51:05;;;;;;;7.72;2.60;;;-7.60;99.90;;;;;;4977786;28;20081;-77
2021/12/25 00:53:32;;;;;;;7.32;2.85;;;-7.60;99.90;;;;;;5002776;28;20528;-77
2021/12/25 00:55:59;;;;;;;7.88;3.08;;;-7.60;99.90;;;;;;4993223;28;20046;-77
2021/12/25 00:58:26;;;;;;;9.73;3.33;;;-7.70;99.90;;;;;;4977671;28;20042;-77
2021/12/25 01:00:53;;;;;;;5.25;2.67;;;-7.60;99.90;;;;;;4999200;28;20129;-77
2021/12/25 01:03:20;;;;;;;7.30;3.00;;;-7.70;99.90;;;;;;4997715;28;20060;-77
2021/12/25 01:05:47;;;;;;;11.00;2.47;;;-7.60;99.90;;;;;;4995594;28;20132;-77
2021/12/25 01:08:14;;;;;;;9.13;3.13;;;-7.60;99.90;;;;;;4980132;28;20088;-77
2021/12/25 01:10:40;;;;;;;8.38;2.65;;;-7.60;99.90;;;;;;4979517;28;20630;-77
2021/12/25 01:13:12;;;;;;;5.00;2.45;;;-7.60;99.90;;;;;;4982737;28;20614;-77
2021/12/25 01:21:31;;;;;;;5.95;2.75;;;-7.60;99.90;;;;;;4994392;28;20074;-77
2021/12/25 01:48:42;;;;;;;8.57;2.55;;;-7.70;99.90;;;;;;4996622;28;20096;-76
2021/12/25 01:51:08;;;;;;;5.40;2.25;;;-7.70;99.90;;;;;;4993136;28;20772;-76
2021/12/25 01:53:35;;;;;;;6.70;2.60;;;-7.70;99.90;;;;;;4974598;28;20060;-76
2021/12/25 01:56:04;;;;;;;9.93;2.67;;;-7.70;99.90;;;;;;4996732;28;20073;-77
2021/12/25 01:58:32;;;;;;;7.50;2.13;;;-7.60;99.90;;;;;;4980637;28;20564;-77
2021/12/25 02:01:00;;;;;;;9.20;2.22;;;-7.70;99.90;;;;;;4981870;28;20089;-77
2021/12/25 02:03:32;;;;;;;7.05;2.70;;;-7.70;99.90;;;;;;4984417;28;20562;-77
2021/12/25 02:05:59;;;;;;;10.50;2.47;;;-7.80;99.90;;;;;;4993730;28;20380;-77
2021/12/25 02:08:27;;;;;;;5.85;2.20;;;-7.70;99.90;;;;;;4977018;28;20089;-77
2021/12/25 02:10:54;;;;;;;8.10;2.55;;;-7.80;99.90;;;;;;4976447;28;20056;-77
2021/12/25 02:13:21;;;;;;;8.98;2.97;;;-7.90;99.90;;;;;;4997977;28;20145;-77
2021/12/25 02:15:52;;;;;;;5.05;3.30;;;-7.90;99.90;;;;;;4979572;28;20078;-77
2021/12/25 02:18:43;;;;;;;6.32;2.78;;;-8.00;99.90;;;;;;4979392;28;20212;-77
2021/12/25 02:21:18;;;;;;;4.53;2.10;;;-8.00;99.90;;;;;;4977495;28;20141;-77
2021/12/25 02:23:45;;;;;;;9.75;2.90;;;-7.90;99.90;;;;;;4983141;28;20050;-77
2021/12/25 02:26:12;;;;;;;7.28;2.45;;;-8.10;99.90;;;;;;4992133;28;20480;-77
2021/12/25 02:28:40;;;;;;;7.55;2.38;;;-8.10;99.90;;;;;;4979972;28;20500;-77
2021/12/25 02:31:10;;;;;;;6.22;2.58;;;-8.10;99.90;;;;;;4998906;28;20128;-77
2021/12/25 02:33:38;;;;;;;11.55;2.70;;;-8.20;99.90;;;;;;4983472;28;20054;-77
2021/12/25 02:36:06;;;;;;;8.20;2.47;;;-8.20;99.90;;;;;;5002331;28;20066;-77
2021/12/25 02:38:34;;;;;;;4.43;1.90;;;-8.20;99.90;;;;;;4982974;28;20100;-77
2021/12/25 02:41:01;;;;;;;5.65;2.22;;;-8.30;99.90;;;;;;5002393;28;20511;-85
2021/12/25 02:43:29;;;;;;;9.27;2.15;;;-8.30;99.90;;;;;;4993928;28;20050;-86
2021/12/25 02:46:01;;;;;;;8.77;2.25;;;-8.30;99.90;;;;;;5021352;28;20081;-86
2021/12/25 02:48:29;;;;;;;8.80;2.67;;;-8.40;99.90;;;;;;4999254;28;20053;-86
2021/12/25 02:50:56;;;;;;;11.95;2.67;;;-8.30;99.90;;;;;;4994659;28;20128;-86
2021/12/25 02:53:23;;;;;;;5.13;2.00;;;-8.40;99.90;;;;;;5005588;28;20539;-86
2021/12/25 02:55:50;;;;;;;6.13;2.25;;;-8.30;99.90;;;;;;5019693;28;20397;-87
2021/12/25 02:58:20;;;;;;;10.18;2.72;;;-8.30;99.90;;;;;;4997284;28;20076;-87
2021/12/25 03:01:10;;;;;;;6.57;2.17;;;-8.30;99.90;;;;;;5000058;28;20721;-87
2021/12/25 03:03:38;;;;;;;12.75;2.60;;;-8.30;99.90;;;;;;4994465;28;20077;-87
2021/12/25 03:06:07;;;;;;;4.25;1.52;;;-8.40;99.90;;;;;;5010268;28;20475;-87
2021/12/25 03:08:35;;;;;;;7.18;2.80;;;-8.30;99.90;;;;;;5013286;28;20057;-87
2021/12/25 03:11:06;;;;;;;7.30;1.88;;;-8.40;99.90;;;;;;5006883;28;20077;-87
2021/12/25 03:13:41;;;;;;;14.70;2.53;;;-8.40;99.90;;;;;;4985912;28;20046;-87
2021/12/25 03:16:09;;;;;;;8.85;2.35;;;-8.40;99.90;;;;;;4987909;28;20101;-87
2021/12/25 03:18:47;;;;;;;7.00;2.38;;;-8.40;99.90;;;;;;4988136;28;20080;-88
2021/12/25 03:21:16;;;;;;;6.15;2.30;;;-8.50;99.90;;;;;;4992840;28;20180;-77
2021/12/25 03:23:44;;;;;;;4.57;2.28;;;-8.50;99.90;;;;;;4983412;28;20058;-77
2021/12/25 03:26:11;;;;;;;3.38;1.52;;;-8.50;99.90;;;;;;4995584;28;20209;-77
2021/12/25 03:28:41;;;;;;;16.92;2.25;;;-8.40;99.90;;;;;;4983706;28;20050;-78
2021/12/25 03:31:15;;;;;;;4.18;2.00;;;-8.40;99.90;;;;;;5002607;28;20129;-77
2021/12/25 03:33:45;;;;;;;3.85;1.58;;;-8.40;99.90;;;;;;4985419;28;20077;-77
2021/12/25 03:36:12;;;;;;;5.00;2.13;;;-8.30;99.90;;;;;;4983788;28;20145;-77
2021/12/25 03:38:38;;;;;;;4.95;1.70;;;-8.40;99.90;;;;;;4998797;28;20164;-77
2021/12/25 03:41:06;;;;;;;5.53;2.03;;;-8.50;99.90;;;;;;4995292;28;20134;-77
2021/12/25 03:43:39;;;;;;;5.65;2.05;;;-8.60;99.90;;;;;;4996557;28;20086;-77
2021/12/25 03:46:09;;;;;;;7.70;1.95;;;-8.70;99.90;;;;;;5000402;28;20144;-77
2021/12/25 03:49:00;;;;;;;10.98;2.20;;;-8.70;99.90;;;;;;4999437;28;20385;-77
2021/12/25 03:59:52;;;;;;;4.05;1.80;;;-8.80;99.90;;;;;;4995015;28;20149;-77
2021/12/25 04:02:25;;;;;;;11.70;2.35;;;-8.80;99.90;;;;;;4991740;28;20141;-77
2021/12/25 04:04:52;;;;;;;4.10;1.80;;;-8.70;99.90;;;;;;4998417;28;20450;-77
2021/12/25 04:07:46;;;;;;;8.93;2.10;;;-8.70;99.90;;;;;;4984274;28;20228;-77
2021/12/25 04:10:08;;;;;;;5.72;2.00;;;-8.70;99.90;;;;;;5002025;28;20100;-77
2021/12/25 04:12:35;;;;;;;8.95;2.42;;;-8.60;99.90;;;;;;4997243;28;20047;-77
2021/12/25 04:15:03;;;;;;;6.68;2.15;;;-8.70;99.90;;;;;;4976743;28;20515;-77
2021/12/25 04:17:29;;;;;;;4.45;2.45;;;-8.70;99.90;;;;;;4984774;28;20137;-77
2021/12/25 04:19:56;;;;;;;11.63;2.50;;;-8.80;99.90;;;;;;4977122;28;20046;-77
2021/12/25 04:22:30;;;;;;;5.40;2.35;;;-8.80;99.90;;;;;;4994148;28;20156;-77
2021/12/25 04:24:56;;;;;;;7.03;2.33;;;-8.80;99.90;;;;;;4978961;28;20149;-78
2021/12/25 04:27:23;;;;;;;4.85;2.17;;;-8.80;99.90;;;;;;4980081;28;20147;-77
2021/12/25 04:30:01;;;;;;;4.93;1.77;;;-8.70;99.90;;;;;;4994311;28;20136;-78
2021/12/25 05:04:57;;;;;;;5.70;2.53;;;-9.00;99.90;;;;;;4997125;28;20061;-77
2021/12/25 05:07:24;;;;;;;6.28;2.10;;;-9.00;99.90;;;;;;4994747;28;20440;-78
2021/12/25 05:09:50;;;;;;;13.80;3.03;;;-9.00;99.90;;;;;;4982000;28;20064;-78
2021/12/25 05:12:17;;;;;;;7.65;2.90;;;-9.00;99.90;;;;;;4979638;28;20077;-78
2021/12/25 05:14:44;;;;;;;5.72;1.70;;;-9.00;99.90;;;;;;4978896;28;20556;-77
2021/12/25 05:17:12;;;;;;;9.93;2.47;;;-9.00;99.90;;;;;;4995797;28;20933;-77
2021/12/25 05:19:40;;;;;;;5.60;2.15;;;-9.00;99.90;;;;;;4992360;28;20133;-77
2021/12/25 05:22:06;;;;;;;8.25;1.80;;;-9.10;99.90;;;;;;4975357;28;20137;-77
2021/12/25 05:24:34;;;;;;;8.20;2.67;;;-9.00;99.90;;;;;;5000023;28;20049;-78
2021/12/25 05:27:01;;;;;;;10.05;2.40;;;-9.00;99.90;;;;;;4979109;28;20525;-77
2021/12/25 05:29:31;;;;;;;7.15;1.88;;;-9.00;99.90;;;;;;4975577;28;20086;-77
2021/12/25 05:31:58;;;;;;;5.72;2.38;;;-9.00;99.90;;;;;;4992747;28;21278;-77
2021/12/25 05:34:24;;;;;;;13.85;1.98;;;-9.00;99.90;;;;;;4980304;28;20051;-77
2021/12/25 05:36:52;;;;;;;10.68;2.63;;;-9.00;99.90;;;;;;4979442;28;20048;-78
2021/12/25 05:39:20;;;;;;;5.80;1.90;;;-8.90;99.90;;;;;;4985710;28;20515;-77
2021/12/25 05:41:47;;;;;;;6.53;2.05;;;-8.90;99.90;;;;;;4992983;28;20142;-78
2021/12/25 05:44:14;;;;;;;7.28;1.55;;;-8.90;99.90;;;;;;4977478;28;20814;-78
2021/12/25 05:46:41;;;;;;;10.90;2.53;;;-8.90;99.90;;;;;;5003948;28;20054;-79
2021/12/25 05:49:08;;;;;;;4.95;1.95;;;-8.80;99.90;;;;;;4987496;28;20053;-79
2021/12/25 05:51:35;;;;;;;10.57;1.88;;;-8.80;99.90;;;;;;4987062;28;20046;-78
2021/12/25 05:54:02;;;;;;;6.50;2.25;;;-8.80;99.90;;;;;;4983381;28;20073;-78
2021/12/25 05:56:29;;;;;;;4.50;1.50;;;-8.80;99.90;;;;;;4979978;28;21037;-78
2021/12/25 05:58:56;;;;;;;7.93;1.98;;;-8.90;99.90;;;;;;4986985;28;20177;-77
2021/12/25 06:01:23;;;;;;;9.27;1.73;;;-8.90;99.90;;;;;;5001466;28;20496;-78
2021/12/25 06:03:51;;;;;;;6.60;1.83;;;-8.80;99.90;;;;;;4979294;28;20077;-79
2021/12/25 06:06:18;;;;;;;9.45;2.50;;;-8.90;99.90;;;;;;4986756;28;20133;-79
2021/12/25 06:08:45;;;;;;;12.52;2.03;;;-8.90;99.90;;;;;;4986445;28;20100;-77
2021/12/25 06:11:11;;;;;;;2.88;1.67;;;-8.90;99.90;;;;;;5001992;28;20088;-77
2021/12/25 06:13:44;;;;;;;10.52;1.90;;;-9.00;99.90;;;;;;5001968;28;20125;-78
2021/12/25 06:16:11;;;;;;;7.65;2.00;;;-9.00;99.90;;;;;;4991327;28;20128;-78
2021/12/25 06:18:38;;;;;;;7.93;2.35;;;-9.10;99.90;;;;;;4993370;28;20107;-79
2021/12/25 06:21:05;;;;;;;6.95;3.28;;;-9.00;99.90;;;;;;4999908;28;20121;-78
2021/12/25 06:23:32;;;;;;;9.20;2.72;;;-9.10;99.90;;;;;;4997236;28;20073;-79
2021/12/25 06:25:58;;;;;;;10.48;2.85;;;-9.00;99.90;;;;;;4980736;28;20825;-79
2021/12/25 06:28:25;;;;;;;6.70;2.53;;;-9.10;99.90;;;;;;4990285;28;20042;-80
2021/12/25 06:30:52;;;;;;;5.25;1.77;;;-9.10;99.90;;;;;;4997865;28;20140;-78
2021/12/25 06:33:19;;;;;;;5.95;1.40;;;-9.20;99.90;;;;;;4994039;28;20133;-77
2021/12/25 06:35:52;;;;;;;5.85;1.60;;;-9.20;99.90;;;;;;5005076;28;20099;-77
2021/12/25 06:38:19;;;;;;;11.02;1.33;;;-9.30;99.90;;;;;;4993219;28;20133;-79
2021/12/25 06:40:46;;;;;;;4.78;1.98;;;-9.40;99.90;;;;;;4986491;28;20482;-74
2021/12/25 06:43:13;;;;;;;7.07;2.22;;;-9.30;99.90;;;;;;5000581;28;20133;-78
2021/12/25 06:45:40;;;;;;;5.43;1.35;;;-9.40;99.90;;;;;;4987868;28;20084;-78
2021/12/25 06:48:06;;;;;;;4.00;1.52;;;-9.50;99.90;;;;;;4986336;28;20049;-78
2021/12/25 06:50:33;;;;;;;7.85;2.05;;;-9.50;99.90;;;;;;4991168;28;20046;-78
2021/12/25 06:53:00;;;;;;;3.50;1.75;;;-9.40;99.90;;;;;;4993727;28;20042;-78
2021/12/25 06:55:26;;;;;;;6.75;1.45;;;-9.50;99.90;;;;;;5009726;28;20562;-78
2021/12/25 06:57:55;;;;;;;6.20;2.13;;;-9.50;99.90;;;;;;4985401;28;20046;-77
2021/12/25 07:00:23;;;;;;;4.82;2.63;;;-9.60;99.90;;;;;;4986606;28;20082;-77
2021/12/25 07:02:50;;;;;;;7.07;2.47;;;-9.60;99.90;;;;;;5000923;28;20057;-77
2021/12/25 07:05:17;;;;;;;4.95;2.15;;;-9.50;99.90;;;;;;5004680;28;20744;-78
2021/12/25 07:07:49;;;;;;;10.93;2.30;;;-9.50;99.90;;;;;;4986587;28;20050;-77
2021/12/25 07:10:16;;;;;;;4.28;1.90;;;-9.50;99.90;;;;;;4991607;28;20161;-78
2021/12/25 07:12:46;;;;;;;4.93;1.70;;;-9.50;99.90;;;;;;4990911;28;20045;-78
2021/12/25 07:15:14;;;;;;;10.50;2.60;;;-9.50;99.90;;;;;;4986665;28;20046;-78
2021/12/25 07:17:41;;;;;;;4.50;1.48;;;-9.40;99.90;;;;;;4983059;28;20137;-78
2021/12/25 07:20:09;;;;;;;5.78;1.95;;;-9.30;99.90;;;;;;4986398;28;20121;-77
2021/12/25 07:22:36;;;;;;;6.10;2.05;;;-9.30;99.90;;;;;;4987181;28;20054;-78
2021/12/25 07:25:05;;;;;;;6.07;1.50;;;-9.20;99.90;;;;;;4979880;28;20065;-78
2021/12/25 07:27:32;;;;;;;10.95;2.00;;;-9.20;99.90;;;;;;5002823;28;20080;-78
2021/12/25 07:30:02;;;;;;;4.35;1.77;;;-9.20;99.90;;;;;;5002212;28;20133;-78
2021/12/25 07:32:28;;;;;;;7.90;1.65;;;-9.20;99.90;;;;;;5003543;28;20132;-78
2021/12/25 07:34:56;;;;;;;6.85;1.90;;;-9.10;99.90;;;;;;4987949;28;20133;-78
2021/12/25 07:37:22;;;;;;;5.32;1.30;;;-9.10;99.90;;;;;;4987296;28;20161;-78
2021/12/25 07:39:49;;;;;;;2.85;1.13;;;-9.00;99.90;;;;;;4987910;28;20050;-78
2021/12/25 07:42:16;;;;;;;2.05;1.05;;;-9.00;99.90;;;;;;4982010;28;20058;-78
2021/12/25 07:44:43;;;;;;;5.55;1.83;;;-9.00;99.90;;;;;;4998762;28;20077;-78
2021/12/25 07:47:11;;;;;;;4.28;1.92;;;-9.00;99.90;;;;;;4985719;28;20509;-77
2021/12/25 07:49:38;;;;;;;5.15;1.65;;;-8.90;99.90;;;;;;4998456;28;20077;-77
2021/12/25 07:52:05;;;;;;;4.65;1.40;;;-9.00;99.90;;;;;;4999231;28;20125;-77
2021/12/25 07:54:32;;;;;;;9.05;2.25;;;-8.90;99.90;;;;;;5001568;28;20054;-78
2021/12/25 07:56:59;;;;;;;19.27;1.83;;;-8.90;99.90;;;;;;4992073;28;20120;-84
2021/12/25 07:59:26;;;;;;;3.33;1.23;;;-8.90;99.90;;;;;;4994855;28;20133;-85
2021/12/25 08:01:53;;;;;;;4.15;1.60;;;-8.80;99.90;;;;;;5008345;28;20530;-86
2021/12/25 08:04:21;;;;;;;6.50;1.55;;;-8.70;99.90;;;;;;5002481;28;20058;-77
2021/12/25 08:06:48;;;;;;;3.35;1.63;;;-8.60;99.90;;;;;;4982441;28;20054;-77
2021/12/25 08:09:20;;;;;;;5.93;2.38;;;-8.60;99.90;;;;;;5003297;28;20398;-78
2021/12/25 08:11:48;;;;;;;5.18;1.95;;;-8.40;99.90;;;;;;5002136;28;20503;-77
2021/12/25 08:14:15;;;;;;;4.63;2.03;;;-8.30;99.90;;;;;;5002144;28;20410;-78
2021/12/25 08:16:41;;;;;;;3.72;1.67;;;-8.20;99.90;;;;;;5004299;28;20077;-78
2021/12/25 08:19:08;;;;;;;9.25;2.30;;;-8.10;99.90;;;;;;4987936;28;20534;-78
2021/12/25 08:21:35;;;;;;;11.32;2.35;;;-8.00;99.90;;;;;;4988830;28;20117;-79
2021/12/25 08:24:02;;;;;;;5.22;1.67;;;-7.90;99.90;;;;;;5007656;28;20605;-79
2021/12/25 08:26:28;;;;;;;7.15;2.13;;;-7.90;99.90;;;;;;5006225;28;20053;-78
2021/12/25 08:28:55;;;;;;;10.18;2.50;;;-7.80;99.90;;;;;;4981530;28;20129;-77
2021/12/25 08:31:22;;;;;;;9.38;2.92;;;-7.80;99.90;;;;;;4977101;28;20088;-77
2021/12/25 08:33:49;;;;;;;9.52;2.83;;;-7.70;99.90;;;;;;4981451;28;20656;-77
2021/12/25 08:36:16;;;;;;;9.90;2.53;;;-7.70;99.90;;;;;;4995923;28;20052;-76
2021/12/25 08:38:42;;;;;;;27.77;3.83;;;-7.60;99.90;;;;;;4978552;28;20124;-79
2021/12/25 08:41:14;;;;;;;9.93;3.17;;;-7.30;99.90;;;;;;5000655;28;20818;-77
2021/12/25 08:43:47;;;;;;;9.63;3.65;;;-7.00;99.90;;;;;;4986989;28;20085;-78
2021/12/25 08:46:18;;;;;;;13.65;4.57;;;-6.90;99.90;;;;;;4985008;28;20081;-78
2021/12/25 08:48:46;;;;;;;10.63;4.10;;;-6.80;99.90;;;;;;5005730;28;20042;-78
2021/12/25 08:51:13;;;;;;;11.88;3.88;;;-6.80;99.90;;;;;;4995733;28;20137;-80
2021/12/25 08:53:39;;;;;;;17.88;4.53;;;-6.70;99.90;;;;;;4978756;28;20137;-77
2021/12/25 08:56:06;;;;;;;15.55;3.65;;;-6.70;99.90;;;;;;4980325;28;20050;-77
2021/12/25 08:58:34;;;;;;;12.18;3.25;;;-6.60;99.90;;;;;;4980297;28;20125;-78
2021/12/25 09:01:06;;;;;;;15.20;4.40;;;-6.50;99.90;;;;;;4995135;28;20125;-78
2021/12/25 09:03:34;;;;;;;16.42;4.05;;;-6.50;99.90;;;;;;5001543;28;20849;-77
2021/12/25 09:06:02;;;;;;;8.75;3.67;;;-6.40;99.90;;;;;;4996787;28;20137;-77
2021/12/25 09:08:30;;;;;;;11.52;3.22;;;-6.30;99.90;;;;;;5000607;28;20490;-77
2021/12/25 09:10:57;;;;;;;6.43;3.00;;;-6.20;99.90;;;;;;4994881;28;20053;-77
2021/12/25 09:13:24;;;;;;;9.48;3.25;;;-6.10;99.90;;;;;;4999522;28;20046;-77
2021/12/25 09:15:51;;;;;;;11.80;3.70;;;-5.90;99.90;;;;;;4977892;28;20153;-77
2021/12/25 09:18:18;;;;;;;5.72;2.63;;;-5.80;99.90;;;;;;4981538;28;20053;-77
2021/12/25 09:20:45;;;;;;;8.30;3.92;;;-5.00;99.90;;;;;;4996628;28;20582;-78
2021/12/25 09:23:12;;;;;;;9.00;3.60;;;-4.40;99.90;;;;;;4987413;28;20144;-79
2021/12/25 09:25:39;;;;;;;10.80;3.15;;;-4.30;99.90;;;;;;4982342;28;20129;-78
2021/12/25 09:28:06;;;;;;;11.07;3.17;;;-4.40;99.90;;;;;;4990958;28;20050;-78
2021/12/25 09:30:33;;;;;;;11.70;3.40;;;-4.60;99.90;;;;;;4986980;28;20854;-84
2021/12/25 09:33:00;;;;;;;8.40;3.42;;;-4.70;99.90;;;;;;4983799;28;20037;-84
2021/12/25 09:35:27;;;;;;;9.40;3.20;;;-4.80;99.90;;;;;;4987571;28;20132;-84
2021/12/25 09:37:54;;;;;;;11.15;3.60;;;-4.70;99.90;;;;;;4992856;28;20141;-83
2021/12/25 09:40:21;;;;;;;9.63;3.75;;;-4.60;99.90;;;;;;4990561;28;20073;-84
2021/12/25 09:43:02;;;;;;;9.52;3.03;;;-4.50;99.90;;;;;;4986959;28;20057;-84
2021/12/25 09:45:29;;;;;;;12.38;3.45;;;-4.50;99.90;;;;;;5021513;23;20502;-78
2021/12/25 09:47:56;;;;;;;9.45;3.75;;;-4.10;99.90;;;;;;4998196;28;20057;-77
2021/12/25 09:50:23;;;;;;;21.75;3.97;;;-3.90;99.90;;;;;;5016752;28;20133;-77
2021/12/25 09:52:50;;;;;;;7.15;3.80;;;-3.70;99.90;;;;;;4994500;28;20062;-77
2021/12/25 09:55:18;;;;;;;10.75;4.28;;;-3.70;99.90;;;;;;5015275;28;20100;-77
2021/12/25 09:57:46;;;;;;;12.48;4.25;;;-3.80;99.90;;;;;;5009591;28;20890;-79
2021/12/25 10:00:17;;;;;;;9.98;4.00;;;-3.70;99.90;;;;;;5013330;28;20655;-79
2021/12/25 10:02:48;;;;;;;9.35;3.95;;;-3.70;99.90;;;;;;5001399;28;20080;-80
2021/12/25 10:05:47;;;;;;;16.27;4.25;;;-3.60;99.90;;;;;;5022578;28;20109;-80
2021/12/25 10:08:15;;;;;;;12.45;4.55;;;-3.60;99.90;;;;;;4992323;28;20136;-81
2021/12/25 10:11:01;;;;;;;12.43;4.03;;;-3.50;99.90;;;;;;4995153;28;20140;-77
2021/12/25 10:16:47;;;;;;;10.50;3.83;;;-2.90;99.90;;;;;;5001429;28;20046;-83
2021/12/25 10:19:17;;;;;;;10.13;3.40;;;-2.90;99.90;;;;;;5000749;28;20086;-84
2021/12/25 10:21:45;;;;;;;16.15;3.60;;;-3.00;99.90;;;;;;5004200;28;20042;-83
2021/12/25 10:24:26;;;;;;;12.30;3.00;;;-3.10;99.90;;;;;;4995182;28;20073;-83
2021/12/25 10:27:07;;;;;;;7.00;2.58;;;-2.80;99.90;;;;;;5013759;28;20136;-84
2021/12/25 10:29:33;;;;;;;12.82;2.90;;;-2.10;99.90;;;;;;4993981;28;20096;-83
2021/12/25 10:32:17;;;;;;;10.75;3.13;;;-2.10;99.90;;;;;;5007900;28;20474;-83
2021/12/25 10:34:45;;;;;;;7.32;2.67;;;-2.30;99.90;;;;;;4990254;28;20042;-83
2021/12/25 10:37:22;;;;;;;6.18;2.22;;;-2.40;99.90;;;;;;5006302;28;20050;-83
2021/12/25 10:39:51;;;;;;;7.65;2.78;;;-2.60;99.90;;;;;;5002806;28;20101;-83
2021/12/25 10:42:33;;;;;;;11.48;3.03;;;-2.50;99.90;;;;;;5001494;28;20118;-83
2021/12/25 10:45:07;;;;;;;8.63;2.50;;;-2.50;99.90;;;;;;5010630;28;20096;-83
2021/12/25 10:47:34;;;;;;;4.53;2.70;;;-1.60;99.90;;;;;;4991512;28;20766;-83
2021/12/25 10:50:15;;;;;;;8.55;2.78;;;-0.60;99.90;;;;;;4978510;28;20135;-84
2021/12/25 10:52:47;;;;;;;6.53;3.00;;;-0.50;99.90;;;;;;4999822;28;20172;-84
2021/12/25 10:55:25;;;;;;;12.25;3.03;;;-0.90;99.90;;;;;;4985487;28;20069;-83
2021/12/25 10:57:55;;;;;;;7.20;2.72;;;-1.40;99.90;;;;;;5009584;28;20471;-84
2021/12/25 11:00:21;;;;;;;9.20;3.47;;;-1.70;99.90;;;;;;5006408;28;20077;-83
2021/12/25 11:02:59;;;;;;;7.07;3.13;;;-1.90;99.90;;;;;;5009812;28;20054;-83
2021/12/25 11:05:32;;;;;;;7.88;2.80;;;-2.00;99.90;;;;;;5009705;28;20431;-83
2021/12/25 11:08:08;;;;;;;6.55;2.80;;;-2.00;99.90;;;;;;5009645;28;20054;-84
2021/12/25 11:10:46;;;;;;;8.02;3.60;;;-1.70;99.90;;;;;;4982303;28;20090;-83
2021/12/25 11:13:19;;;;;;;5.47;2.45;;;-0.90;99.90;;;;;;5003388;28;20129;-83
2021/12/25 11:15:46;;;;;;;4.80;2.58;;;-0.50;99.90;;;;;;5004953;28;20074;-84
2021/12/25 11:18:15;;;;;;;7.40;3.03;;;-0.10;99.90;;;;;;4994679;28;20141;-84
2021/12/25 11:20:43;;;;;;;8.93;3.50;;;0.80;99.90;;;;;;4990147;28;20139;-83
2021/12/25 11:23:12;;;;;;;11.40;3.60;;;0.90;99.90;;;;;;4987982;28;20054;-84
2021/12/25 11:25:40;;;;;;;8.07;2.88;;;1.60;99.90;;;;;;4991606;28;20874;-84
2021/12/25 11:28:10;;;;;;;7.75;2.83;;;2.00;99.90;;;;;;5016246;28;20085;-83
2021/12/25 11:30:41;;;;;;;9.27;3.28;;;1.90;99.90;;;;;;4992117;28;20061;-78
2021/12/25 11:33:09;;;;;;;14.00;3.28;;;2.10;99.90;;;;;;4988009;28;20062;-78
2021/12/25 11:35:36;;;;;;;10.32;3.35;;;2.40;99.90;;;;;;4986134;28;20042;-78
2021/12/25 11:38:06;;;;;;;7.65;2.70;;;2.70;99.90;;;;;;4992199;28;20153;-78
2021/12/25 11:40:35;;;;;;;10.32;3.28;;;2.30;99.90;;;;;;4975596;28;20155;-78
2021/12/25 11:43:04;;;;;;;6.10;2.90;;;2.70;99.90;;;;;;4991957;28;20052;-78
2021/12/25 11:45:40;;;;;;;6.97;3.15;;;2.80;99.90;;;;;;4998693;28;20085;-78
2021/12/25 11:48:17;;;;;;;7.25;2.88;;;3.10;99.90;;;;;;4984994;28;20168;-76
2021/12/25 11:50:47;;;;;;;4.93;2.35;;;3.30;99.90;;;;;;4974159;28;20081;-76
2021/12/25 11:53:44;;;;;;;3.65;2.25;;;3.40;99.90;;;;;;4988650;28;20052;-76
2021/12/25 11:59:17;;;;;;;5.63;2.45;;;1.70;99.90;;;;;;4993687;28;20444;-77
2021/12/25 12:01:49;;;;;;;10.77;2.65;;;1.40;99.90;;;;;;4993818;28;20808;-76
2021/12/25 12:04:24;;;;;;;5.35;2.35;;;1.30;99.90;;;;;;4980017;28;20139;-77
2021/12/25 12:06:59;;;;;;;6.38;2.38;;;2.10;99.90;;;;;;4995168;28;20137;-76
2021/12/25 12:09:31;;;;;;;9.20;2.33;;;2.40;99.90;;;;;;5000038;28;20060;-76
2021/12/25 12:12:03;;;;;;;8.30;1.90;;;2.20;99.90;;;;;;4984628;28;20053;-77
2021/12/25 12:14:31;;;;;;;5.38;2.65;;;2.00;99.90;;;;;;4995099;28;20081;-77
2021/12/25 12:17:02;;;;;;;4.05;2.25;;;1.70;99.90;;;;;;4983064;28;20077;-77
2021/12/25 12:19:38;;;;;;;5.60;2.05;;;1.60;99.90;;;;;;5002310;28;20172;-77
2021/12/25 12:22:14;;;;;;;6.55;2.95;;;1.30;99.90;;;;;;4995166;28;20249;-76
2021/12/25 12:24:49;;;;;;;5.53;2.35;;;0.80;99.90;;;;;;4985430;28;20053;-76
2021/12/25 12:27:35;;;;;;;6.97;2.42;;;0.60;99.90;;;;;;5002803;28;20116;-83
2021/12/25 12:30:07;;;;;;;15.35;2.85;;;0.80;99.90;;;;;;4995869;28;20046;-83
2021/12/25 12:32:44;;;;;;;5.30;2.10;;;0.90;99.90;;;;;;4998522;28;20149;-82
2021/12/25 12:35:26;;;;;;;5.97;2.30;;;1.10;99.90;;;;;;5010804;28;20046;-84
2021/12/25 12:37:54;;;;;;;11.80;2.60;;;1.40;99.90;;;;;;4989054;28;20130;-76
2021/12/25 12:40:25;;;;;;;10.15;2.63;;;1.40;99.90;;;;;;4997632;28;20077;-76
2021/12/25 12:42:59;;;;;;;3.78;1.73;;;1.40;99.90;;;;;;4993888;28;20133;-76
2021/12/25 12:45:32;;;;;;;7.22;2.35;;;1.60;99.90;;;;;;4999450;28;20415;-76
2021/12/25 12:48:20;;;;;;;6.80;2.50;;;1.60;99.90;;;;;;4989555;28;20487;-77
2021/12/25 12:50:57;;;;;;;4.65;1.85;;;1.50;99.90;;;;;;4974235;28;20168;-77
2021/12/25 12:53:24;;;;;;;5.40;2.53;;;1.40;99.90;;;;;;4998511;28;20060;-77
2021/12/25 12:56:02;;;;;;;5.45;2.22;;;1.30;99.90;;;;;;4984401;28;20057;-77
2021/12/25 12:58:29;;;;;;;6.60;2.20;;;1.60;99.90;;;;;;4991751;28;20042;-78
2021/12/25 13:00:59;;;;;;;5.40;1.88;;;2.40;99.90;;;;;;4989302;28;20074;-77
2021/12/25 13:03:29;;;;;;;5.00;2.40;;;3.50;99.90;;;;;;4976937;28;20837;-78
2021/12/25 13:06:03;;;;;;;4.90;2.30;;;4.50;99.90;;;;;;4984271;28;20137;-76
2021/12/25 13:08:33;;;;;;;5.22;2.28;;;5.30;99.90;;;;;;4972835;28;20053;-78
2021/12/25 13:11:15;;;;;;;4.18;1.83;;;5.60;99.90;;;;;;4974309;28;20136;-78
2021/12/25 13:13:51;;;;;;;4.03;1.80;;;5.40;99.90;;;;;;4990632;28;20137;-78
2021/12/25 13:16:23;;;;;;;3.67;2.15;;;4.60;99.90;;;;;;4993182;28;20141;-77
2021/12/25 13:18:54;;;;;;;9.48;2.50;;;3.70;99.90;;;;;;4984858;28;20410;-77
2021/12/25 13:21:26;;;;;;;9.32;2.35;;;3.20;99.90;;;;;;4994867;28;20144;-77
2021/12/25 13:23:57;;;;;;;6.43;2.50;;;2.70;99.90;;;;;;4998862;28;20081;-77
2021/12/25 13:26:33;;;;;;;6.10;2.42;;;2.40;99.90;;;;;;4978602;28;20058;-77
2021/12/25 13:29:09;;;;;;;6.18;2.45;;;2.00;99.90;;;;;;4996189;28;20144;-77
2021/12/25 13:31:39;;;;;;;10.43;2.67;;;1.60;99.90;;;;;;4991548;28;20061;-77
2021/12/25 13:34:15;;;;;;;5.00;2.47;;;1.30;99.90;;;;;;4973305;28;20226;-77
2021/12/25 13:36:50;;;;;;;6.72;3.00;;;1.10;99.90;;;;;;4970148;28;20729;-76
2021/12/25 13:39:23;;;;;;;9.05;3.78;;;1.10;99.90;;;;;;4975591;28;20046;-77
2021/12/25 13:41:54;;;;;;;4.72;2.33;;;1.40;99.90;;;;;;4996410;28;20133;-77
2021/12/25 13:44:29;;;;;;;6.32;2.67;;;1.70;99.90;;;;;;4980825;28;20499;-83
2021/12/25 13:46:57;;;;;;;8.85;2.78;;;1.90;99.90;;;;;;4985297;28;20125;-84
2021/12/25 13:49:42;;;;;;;9.15;2.60;;;1.90;99.90;;;;;;5006246;28;20054;-82
2021/12/25 13:52:12;;;;;;;8.63;3.05;;;1.60;99.90;;;;;;5002287;28;20582;-83
2021/12/25 13:54:42;;;;;;;8.63;3.60;;;1.60;99.90;;;;;;4995169;28;20200;-82
2021/12/25 13:57:10;;;;;;;6.53;2.72;;;1.60;99.90;;;;;;4982804;28;20125;-82
2021/12/25 13:59:40;;;;;;;4.82;2.25;;;1.60;99.90;;;;;;4978995;28;20077;-82
2021/12/25 14:02:11;;;;;;;8.50;2.78;;;1.50;99.90;;;;;;4999694;28;20133;-81
2021/12/25 14:04:45;;;;;;;5.40;2.53;;;1.40;99.90;;;;;;4988273;28;20050;-82
2021/12/25 14:07:16;;;;;;;5.57;2.10;;;1.10;99.90;;;;;;5010434;28;20122;-82
2021/12/25 14:10:16;;;;;;;7.90;2.28;;;0.80;99.90;;;;;;5010710;28;20077;-82
2021/12/25 14:12:52;;;;;;;5.35;2.70;;;0.40;99.90;;;;;;4986584;28;20084;-83
2021/12/25 14:15:23;;;;;;;6.18;2.47;;;0.20;99.90;;;;;;5016376;28;20138;-82
2021/12/25 14:17:55;;;;;;;5.57;2.28;;;-0.10;99.90;;;;;;4988275;28;20121;-82
2021/12/25 14:20:31;;;;;;;8.77;2.58;;;-0.40;99.90;;;;;;5006920;28;20066;-82
2021/12/25 14:23:17;;;;;;;8.10;3.35;;;-0.60;99.90;;;;;;4998583;28;20141;-83
2021/12/25 14:25:55;;;;;;;9.05;3.78;;;-0.80;99.90;;;;;;5007059;28;20128;-83
2021/12/25 14:28:30;;;;;;;7.72;2.72;;;-1.00;99.90;;;;;;5004462;28;20459;-83